Time;durP1;ratioP1;P1;durP2;ratioP2;P2;SDS_P1;SDS_P2;PMS_P1;PMS_P2;Temp;Humidity;BMP_temperature;BMP_pressure;BME280_temperature;BME280_humidity;BME280_pressure;Samples;Min_cycle;Max_cycle;Signal;HPM_P1;HPM_P2
2022/03/28 00:00:10;;;;;;;13.00;12.30;;;;;;;5.97;98.29;102746.59;5072501;28;20438;-48
2022/03/28 00:02:40;;;;;;;13.27;12.57;;;;;;;5.88;98.66;102740.22;5072433;28;20430;-45
2022/03/28 00:05:09;;;;;;;12.83;12.10;;;;;;;5.85;97.91;102735.16;5071700;28;20462;-45
2022/03/28 00:07:36;;;;;;;14.13;13.10;;;;;;;5.89;98.03;102727.78;5072198;28;20509;-48
2022/03/28 00:10:05;;;;;;;12.60;11.60;;;;;;;5.83;98.60;102728.22;5071950;28;20912;-47
2022/03/28 00:12:33;;;;;;;14.37;13.47;;;;;;;5.84;98.83;102725.47;5072205;28;20431;-48
2022/03/28 00:15:01;;;;;;;13.50;12.50;;;;;;;5.89;97.52;102726.00;5071603;28;20547;-47
2022/03/28 00:17:31;;;;;;;13.10;12.30;;;;;;;5.86;97.84;102717.44;5072079;28;20561;-48
2022/03/28 00:19:59;;;;;;;12.83;11.83;;;;;;;5.83;97.89;102717.63;5072271;28;20434;-47
2022/03/28 00:22:28;;;;;;;13.07;12.23;;;;;;;5.77;98.39;102720.75;5071943;28;20521;-48
2022/03/28 00:24:56;;;;;;;13.63;13.13;;;;;;;5.70;97.86;102712.47;5071472;28;20523;-46
2022/03/28 00:27:23;;;;;;;13.50;12.70;;;;;;;5.73;97.04;102708.72;5071865;28;21046;-45
2022/03/28 00:29:51;;;;;;;12.63;12.07;;;;;;;5.69;96.69;102704.63;5071970;28;20530;-46
2022/03/28 00:32:19;;;;;;;14.03;13.37;;;;;;;5.64;96.24;102702.34;5071821;28;20432;-50
2022/03/28 00:34:48;;;;;;;13.97;13.13;;;;;;;5.55;95.52;102700.41;5071444;28;20884;-47
2022/03/28 00:37:15;;;;;;;13.90;13.20;;;;;;;5.50;94.80;102694.59;5071548;28;20565;-46
2022/03/28 00:39:43;;;;;;;14.50;13.70;;;;;;;5.56;94.22;102681.75;5071943;28;20430;-48
2022/03/28 00:42:11;;;;;;;14.47;13.67;;;;;;;5.68;95.60;102666.72;5071760;28;20521;-46
2022/03/28 00:44:39;;;;;;;15.13;13.90;;;;;;;5.78;95.04;102673.00;5067581;28;20542;-46
2022/03/28 00:47:06;;;;;;;14.23;13.30;;;;;;;5.73;95.83;102666.38;5067976;28;20442;-45
2022/03/28 00:49:34;;;;;;;13.47;12.90;;;;;;;5.74;95.57;102670.69;5051536;28;20517;-46
2022/03/28 00:52:04;;;;;;;14.90;13.87;;;;;;;5.67;95.72;102665.06;5051561;28;20952;-47
2022/03/28 00:54:32;;;;;;;13.70;13.00;;;;;;;5.67;95.22;102666.84;5051296;28;20455;-45
2022/03/28 00:57:00;;;;;;;13.90;13.30;;;;;;;5.69;95.43;102651.69;5051359;28;20479;-51
2022/03/28 00:59:31;;;;;;;13.50;12.80;;;;;;;5.78;95.69;102654.47;5051595;28;20441;-46
2022/03/28 01:01:59;;;;;;;14.00;13.10;;;;;;;5.82;96.38;102642.69;5051201;28;20941;-45
2022/03/28 01:04:27;;;;;;;12.53;12.13;;;;;;;5.82;97.20;102647.13;5051615;28;20490;-46
2022/03/28 01:06:55;;;;;;;13.03;12.50;;;;;;;5.84;97.42;102646.06;5055567;28;20969;-47
2022/03/28 01:09:24;;;;;;;13.73;13.00;;;;;;;5.87;97.67;102640.56;5055684;28;20519;-47
2022/03/28 01:11:53;;;;;;;12.93;12.43;;;;;;;5.75;97.60;102643.28;5055520;28;20518;-46
2022/03/28 01:14:21;;;;;;;14.10;13.33;;;;;;;5.70;96.95;102646.28;5055025;28;20530;-47
2022/03/28 01:19:34;;;;;;;14.40;13.33;;;;;;;5.74;96.55;102637.13;5055787;28;20435;-52
2022/03/28 01:22:03;;;;;;;13.43;12.70;;;;;;;5.70;96.33;102637.50;5055331;28;20430;-51
2022/03/28 01:24:31;;;;;;;13.20;12.67;;;;;;;5.66;96.85;102636.88;5054978;28;20490;-51
2022/03/28 01:26:59;;;;;;;13.83;13.13;;;;;;;5.64;96.42;102636.19;5055130;28;20534;-52
2022/03/28 01:29:27;;;;;;;15.57;14.37;;;;;;;5.52;97.50;102634.47;5055479;28;20437;-46
2022/03/28 01:31:56;;;;;;;14.40;13.60;;;;;;;5.42;96.53;102629.03;5054867;28;20431;-49
2022/03/28 01:34:24;;;;;;;12.97;12.43;;;;;;;5.43;95.18;102628.09;5054835;28;20465;-48
2022/03/28 01:36:51;;;;;;;14.17;13.13;;;;;;;5.44;93.91;102623.59;5055139;28;20560;-48
2022/03/28 01:39:20;;;;;;;14.03;13.07;;;;;;;5.47;93.21;102624.22;5055147;28;20878;-48
2022/03/28 01:41:48;;;;;;;13.70;12.97;;;;;;;5.36;95.18;102626.84;5066709;28;20587;-50
2022/03/28 01:44:16;;;;;;;13.53;12.90;;;;;;;5.30;94.22;102622.03;5074091;28;20466;-47
2022/03/28 01:46:45;;;;;;;14.07;13.27;;;;;;;5.27;93.27;102622.25;5063298;28;20542;-47
2022/03/28 01:49:13;;;;;;;13.13;12.53;;;;;;;5.19;93.23;102614.06;5072625;28;21052;-48
2022/03/28 01:51:41;;;;;;;13.03;12.40;;;;;;;5.19;92.44;102613.22;5074642;28;20868;-46
2022/03/28 01:54:09;;;;;;;13.10;12.40;;;;;;;5.20;92.55;102622.81;5074188;28;20446;-50
2022/03/28 01:56:40;;;;;;;13.30;12.60;;;;;;;5.26;92.73;102609.13;5074635;28;21086;-45
2022/03/28 01:59:08;;;;;;;12.60;12.17;;;;;;;5.25;92.46;102608.31;5074835;28;20469;-50
2022/03/28 02:01:37;;;;;;;12.60;12.20;;;;;;;5.17;92.68;102608.03;5074358;28;20419;-49
2022/03/28 02:04:05;;;;;;;13.33;12.73;;;;;;;5.12;90.98;102607.56;5073464;28;20609;-51
2022/03/28 02:06:34;;;;;;;14.20;13.33;;;;;;;5.16;90.64;102610.81;5074322;28;20445;-49
2022/03/28 02:09:02;;;;;;;13.23;12.63;;;;;;;5.15;89.70;102614.41;5074688;28;20430;-49
2022/03/28 02:11:30;;;;;;;13.77;13.27;;;;;;;5.17;88.63;102608.03;5074385;28;20454;-49
2022/03/28 02:13:59;;;;;;;14.07;13.57;;;;;;;5.15;90.27;102603.84;5073211;28;20499;-46
2022/03/28 02:16:27;;;;;;;14.33;13.63;;;;;;;5.13;91.81;102609.25;5074179;28;20524;-46
2022/03/28 02:18:55;;;;;;;13.23;12.40;;;;;;;5.19;89.37;102607.94;5074211;28;20466;-47
2022/03/28 02:21:22;;;;;;;14.53;13.47;;;;;;;5.26;89.53;102603.84;5073922;28;20431;-49
2022/03/28 02:23:50;;;;;;;13.53;12.73;;;;;;;5.31;89.68;102599.91;5073049;28;20486;-48
2022/03/28 02:26:18;;;;;;;13.47;12.80;;;;;;;5.37;89.22;102594.16;5074216;28;20542;-49
2022/03/28 02:28:47;;;;;;;13.47;12.80;;;;;;;5.43;90.57;102601.63;5074391;28;20521;-46
2022/03/28 02:31:16;;;;;;;13.30;12.80;;;;;;;5.42;91.52;102605.22;5073953;28;20879;-48
2022/03/28 02:33:44;;;;;;;14.80;14.20;;;;;;;5.40;92.79;102603.66;5073384;28;20454;-49
2022/03/28 02:36:12;;;;;;;15.40;14.40;;;;;;;5.31;93.87;102602.56;5074010;28;20460;-47
2022/03/28 02:38:40;;;;;;;14.40;13.70;;;;;;;5.26;93.22;102598.56;5074033;28;20470;-46
2022/03/28 02:41:07;;;;;;;14.43;13.63;;;;;;;5.22;95.51;102589.19;5073610;28;20430;-47
2022/03/28 02:43:35;;;;;;;13.83;13.23;;;;;;;5.30;94.93;102585.00;5073549;28;20549;-46
2022/03/28 02:46:03;;;;;;;15.70;14.50;;;;;;;5.35;95.40;102590.78;5073646;28;20457;-47
2022/03/28 02:48:32;;;;;;;14.77;14.07;;;;;;;5.35;95.68;102590.78;5073662;28;20437;-46
2022/03/28 02:51:00;;;;;;;13.80;13.23;;;;;;;5.35;93.95;102590.78;5073654;28;20525;-49
2022/03/28 02:53:27;;;;;;;15.03;14.30;;;;;;;5.28;97.37;102575.50;5073236;28;20470;-47
2022/03/28 02:55:55;;;;;;;14.93;14.23;;;;;;;5.34;96.04;102577.69;5073545;28;20554;-47
2022/03/28 02:58:23;;;;;;;16.33;15.17;;;;;;;5.40;97.11;102564.81;5073482;28;20474;-48
2022/03/28 03:00:50;;;;;;;15.80;15.10;;;;;;;5.49;97.80;102571.19;5073184;28;20529;-50
2022/03/28 03:03:18;;;;;;;14.10;13.47;;;;;;;5.47;97.98;102565.16;5072965;28;20441;-46
2022/03/28 03:05:49;;;;;;;15.40;14.17;;;;;;;5.43;98.19;102561.09;5073641;28;20461;-46
2022/03/28 03:08:17;;;;;;;14.10;13.40;;;;;;;5.34;99.19;102570.59;5073569;28;20514;-48
2022/03/28 03:10:45;;;;;;;14.60;13.90;;;;;;;5.38;99.11;102563.22;5073188;28;20871;-45
2022/03/28 03:13:13;;;;;;;14.23;13.40;;;;;;;5.38;98.54;102558.78;5066245;28;21006;-45
2022/03/28 03:15:40;;;;;;;14.30;13.70;;;;;;;5.43;98.36;102555.81;5039962;28;20458;-48
2022/03/28 03:18:08;;;;;;;13.20;12.70;;;;;;;5.38;99.42;102557.94;5059096;28;20562;-47
2022/03/28 03:20:35;;;;;;;13.53;13.03;;;;;;;5.38;98.93;102550.00;5073120;28;20427;-45
2022/03/28 03:23:05;;;;;;;12.70;12.30;;;;;;;5.30;99.59;102550.59;5056441;28;20518;-47
2022/03/28 03:25:32;;;;;;;12.90;12.23;;;;;;;5.24;99.25;102563.47;5053037;28;20437;-46
2022/03/28 03:28:00;;;;;;;12.77;12.37;;;;;;;5.26;98.93;102561.53;5052307;28;20514;-51
2022/03/28 03:30:28;;;;;;;13.10;12.70;;;;;;;5.24;98.60;102553.72;5052947;28;20431;-47
2022/03/28 03:32:56;;;;;;;12.30;11.83;;;;;;;5.20;98.00;102551.41;5052952;28;20522;-46
2022/03/28 03:35:24;;;;;;;11.70;11.40;;;;;;;5.14;97.74;102551.91;5052199;28;20463;-47
2022/03/28 03:37:51;;;;;;;12.60;12.20;;;;;;;5.13;96.56;102551.06;5052705;28;20522;-46
2022/03/28 03:40:20;;;;;;;12.80;12.40;;;;;;;5.15;95.40;102546.50;5052692;28;20526;-47
2022/03/28 03:42:48;;;;;;;12.40;12.00;;;;;;;5.11;95.49;102549.50;5052839;28;20435;-45
2022/03/28 03:45:16;;;;;;;12.03;11.63;;;;;;;5.05;96.63;102537.56;5053648;28;20509;-48
2022/03/28 03:47:43;;;;;;;12.80;12.40;;;;;;;5.01;97.44;102542.28;5064334;28;20434;-48
2022/03/28 03:50:11;;;;;;;13.00;12.40;;;;;;;5.05;96.14;102539.41;5072435;28;20462;-48
2022/03/28 03:52:39;;;;;;;12.03;11.73;;;;;;;5.07;96.07;102529.53;5072496;28;20933;-48
2022/03/28 03:55:08;;;;;;;12.03;11.70;;;;;;;5.06;96.63;102533.13;5071836;28;20546;-45
2022/03/28 03:57:37;;;;;;;12.40;12.10;;;;;;;5.09;95.97;102528.47;5072156;28;20545;-48
2022/03/28 04:00:07;;;;;;;12.53;12.03;;;;;;;5.10;97.38;102530.16;5072415;28;20481;-48
2022/03/28 04:02:34;;;;;;;12.60;12.27;;;;;;;5.05;98.74;102526.19;5072274;28;20431;-48
2022/03/28 04:05:02;;;;;;;12.40;12.00;;;;;;;5.10;97.12;102518.72;5071691;28;20461;-45
2022/03/28 04:07:30;;;;;;;12.90;12.40;;;;;;;5.14;96.32;102515.72;5072157;28;20542;-49
2022/03/28 04:10:00;;;;;;;12.87;12.37;;;;;;;5.12;95.08;102517.66;5072561;28;20438;-50
2022/03/28 04:12:28;;;;;;;12.50;12.10;;;;;;;5.08;94.75;102510.06;5072045;28;20525;-49
2022/03/28 04:15:00;;;;;;;13.10;12.70;;;;;;;5.02;94.12;102514.84;5071712;28;20533;-49
2022/03/28 04:17:29;;;;;;;13.47;13.00;;;;;;;5.04;92.70;102517.41;5072034;28;20804;-46
2022/03/28 04:19:56;;;;;;;13.83;13.20;;;;;;;5.01;92.94;102520.28;5071737;28;20481;-47
2022/03/28 04:22:24;;;;;;;14.70;13.90;;;;;;;5.03;92.15;102521.00;5071900;28;20432;-47
2022/03/28 04:24:52;;;;;;;14.30;13.80;;;;;;;5.00;91.75;102511.50;5071482;28;20459;-47
2022/03/28 04:27:20;;;;;;;15.23;14.33;;;;;;;4.95;90.82;102518.09;5072059;28;20810;-46
2022/03/28 04:29:48;;;;;;;14.27;13.70;;;;;;;4.99;89.74;102504.50;5071980;28;20525;-45
2022/03/28 04:32:17;;;;;;;14.77;14.27;;;;;;;4.95;89.99;102499.59;5071599;28;20430;-48
2022/03/28 04:34:45;;;;;;;14.40;13.90;;;;;;;4.95;91.65;102494.31;5071251;28;20462;-46
2022/03/28 04:37:12;;;;;;;16.20;15.50;;;;;;;4.98;92.08;102500.22;5071896;28;20457;-47
2022/03/28 04:39:41;;;;;;;15.10;14.40;;;;;;;4.97;93.66;102495.88;5070740;28;20564;-48
2022/03/28 04:42:08;;;;;;;15.83;15.23;;;;;;;5.07;93.25;102488.06;5071729;28;20430;-46
2022/03/28 04:44:36;;;;;;;16.40;15.50;;;;;;;5.01;95.96;102484.09;5071264;28;20498;-47
2022/03/28 04:47:04;;;;;;;15.30;14.50;;;;;;;5.10;96.24;102484.34;5071424;28;20446;-47
2022/03/28 04:49:33;;;;;;;14.70;14.20;;;;;;;5.23;95.53;102480.63;5071790;28;20430;-48
2022/03/28 04:52:01;;;;;;;16.00;15.27;;;;;;;5.32;96.10;102481.69;5071544;28;20541;-47
2022/03/28 04:54:28;;;;;;;16.17;15.30;;;;;;;5.40;96.63;102477.50;5071222;28;20996;-49
2022/03/28 04:56:56;;;;;;;16.03;15.13;;;;;;;5.45;96.79;102471.84;5071318;28;20472;-47
2022/03/28 04:59:23;;;;;;;14.73;14.13;;;;;;;5.51;97.49;102476.66;5071340;28;20480;-45
2022/03/28 05:01:52;;;;;;;15.37;14.50;;;;;;;5.56;97.89;102470.03;5071360;28;20999;-48
2022/03/28 05:04:20;;;;;;;15.03;14.17;;;;;;;5.59;98.49;102475.06;5071147;28;20466;-45
2022/03/28 05:06:49;;;;;;;15.20;14.20;;;;;;;5.63;98.67;102474.84;5071409;28;21213;-47
2022/03/28 05:09:17;;;;;;;16.57;15.77;;;;;;;5.66;98.84;102475.44;5071408;28;20530;-48
2022/03/28 05:11:45;;;;;;;16.63;15.43;;;;;;;5.68;99.14;102470.00;5071231;28;20458;-46
2022/03/28 05:14:14;;;;;;;15.40;14.67;;;;;;;5.71;99.41;102467.09;5070829;28;20479;-49
2022/03/28 05:16:41;;;;;;;15.00;14.10;;;;;;;5.75;99.43;102466.75;5071478;28;20446;-48
2022/03/28 05:19:09;;;;;;;15.33;14.63;;;;;;;5.78;100.00;102461.22;5071517;28;20477;-49
2022/03/28 05:21:37;;;;;;;15.23;13.87;;;;;;;5.81;99.97;102468.06;5071086;28;20430;-45
2022/03/28 05:24:06;;;;;;;14.47;13.97;;;;;;;5.81;100.00;102455.69;5070962;28;20541;-48
2022/03/28 05:26:34;;;;;;;15.50;14.70;;;;;;;5.85;99.92;102451.84;5071187;28;20745;-47
2022/03/28 05:29:02;;;;;;;22.30;20.50;;;;;;;5.85;100.00;102443.91;5071277;28;20548;-46
2022/03/28 05:31:30;;;;;;;17.77;16.63;;;;;;;5.91;99.97;102448.69;5071157;28;20533;-47
2022/03/28 05:33:57;;;;;;;39.80;29.17;;;;;;;5.92;100.00;102447.72;5070863;28;20473;-45
2022/03/28 05:36:25;;;;;;;23.13;21.00;;;;;;;5.97;100.00;102437.59;5071287;28;20892;-47
2022/03/28 05:38:53;;;;;;;36.53;29.13;;;;;;;6.02;100.00;102440.72;5071142;28;20433;-47
2022/03/28 05:41:22;;;;;;;20.20;18.50;;;;;;;6.06;99.78;102431.53;5070926;28;20526;-48
2022/03/28 05:43:49;;;;;;;20.37;19.00;;;;;;;6.11;99.68;102444.41;5070792;28;20466;-47
2022/03/28 05:46:18;;;;;;;14.40;13.40;;;;;;;6.12;99.58;102444.28;5061916;28;20533;-46
2022/03/28 05:48:52;;;;;;;21.50;19.70;;;;;;;6.14;99.68;102438.88;5066096;28;20453;-50
2022/03/28 05:51:19;;;;;;;18.17;17.10;;;;;;;6.17;99.06;102433.31;5072829;28;20518;-48
2022/03/28 05:53:47;;;;;;;19.30;18.13;;;;;;;6.23;99.53;102438.09;5074184;28;20464;-46
2022/03/28 05:56:15;;;;;;;19.23;17.90;;;;;;;6.26;99.41;102443.16;5074799;28;20466;-46
2022/03/28 05:58:44;;;;;;;20.77;19.30;;;;;;;6.32;98.99;102442.66;5074867;28;20525;-45
2022/03/28 06:01:12;;;;;;;15.70;14.77;;;;;;;6.36;99.48;102441.41;5074282;28;20485;-49
2022/03/28 06:03:40;;;;;;;24.73;22.73;;;;;;;6.40;99.25;102444.63;5074099;28;21299;-48
2022/03/28 06:06:08;;;;;;;21.40;19.90;;;;;;;6.45;98.98;102443.28;5074349;28;20523;-45
2022/03/28 06:08:36;;;;;;;16.07;15.20;;;;;;;6.49;99.03;102430.63;5074662;28;20857;-46
2022/03/28 06:11:05;;;;;;;16.83;15.83;;;;;;;6.53;98.88;102432.91;5074392;28;20429;-46
2022/03/28 06:13:33;;;;;;;21.80;20.20;;;;;;;6.59;97.96;102426.25;5074047;28;20492;-50
2022/03/28 06:16:04;;;;;;;18.30;17.20;;;;;;;6.61;98.18;102426.94;5074332;28;20537;-45
2022/03/28 06:18:32;;;;;;;20.27;18.83;;;;;;;6.65;97.53;102423.06;5074209;28;20444;-47
2022/03/28 06:21:00;;;;;;;17.63;16.63;;;;;;;6.70;96.88;102418.19;5074117;28;20481;-49
2022/03/28 06:23:28;;;;;;;14.97;14.30;;;;;;;6.75;97.28;102421.28;5073914;28;20485;-48
2022/03/28 06:25:55;;;;;;;15.33;14.37;;;;;;;6.80;96.80;102411.16;5074395;28;20825;-50
2022/03/28 06:28:23;;;;;;;14.27;13.67;;;;;;;6.89;96.71;102414.81;5074263;28;20476;-46
2022/03/28 06:30:50;;;;;;;14.37;13.87;;;;;;;6.90;96.25;102406.72;5073826;28;20966;-49
2022/03/28 06:33:19;;;;;;;15.13;14.23;;;;;;;6.97;95.52;102397.28;5073371;28;20480;-48
2022/03/28 06:35:47;;;;;;;14.00;13.30;;;;;;;7.06;96.21;102393.81;5074087;28;21029;-46
2022/03/28 06:38:15;;;;;;;14.03;13.53;;;;;;;7.07;95.31;102384.06;5074133;28;20513;-47
2022/03/28 06:40:42;;;;;;;14.43;13.40;;;;;;;7.13;94.73;102392.31;5073937;28;20466;-46
2022/03/28 06:43:10;;;;;;;13.10;12.70;;;;;;;7.14;94.22;102385.19;5073520;28;20426;-47
2022/03/28 06:45:38;;;;;;;13.47;12.90;;;;;;;7.20;93.23;102387.28;5073754;28;20534;-50
2022/03/28 06:48:06;;;;;;;13.53;12.83;;;;;;;7.27;94.07;102379.66;5073570;28;20472;-45
2022/03/28 06:50:55;;;;;;;13.90;13.20;;;;;;;7.30;93.01;102377.56;5073521;28;20437;-46
2022/03/28 06:53:23;;;;;;;13.30;12.80;;;;;;;7.36;93.03;102377.03;5073160;28;20466;-48
2022/03/28 06:55:51;;;;;;;13.70;13.00;;;;;;;7.39;92.05;102371.44;5073431;28;20549;-47
2022/03/28 06:58:19;;;;;;;14.20;13.50;;;;;;;7.50;92.57;102375.78;5073647;28;20530;-48
2022/03/28 07:00:47;;;;;;;13.97;13.37;;;;;;;7.56;91.92;102370.78;5072947;28;20470;-48
2022/03/28 07:03:14;;;;;;;14.00;13.40;;;;;;;7.62;91.61;102364.91;5072114;28;20941;-47
2022/03/28 07:05:44;;;;;;;14.60;13.80;;;;;;;7.72;91.52;102373.75;5073404;28;20455;-48
2022/03/28 07:08:13;;;;;;;14.37;13.67;;;;;;;7.82;91.59;102362.28;5073456;28;20458;-45
2022/03/28 07:10:42;;;;;;;14.57;13.87;;;;;;;7.88;90.71;102365.22;5072931;28;20804;-47
2022/03/28 07:13:09;;;;;;;14.50;13.80;;;;;;;7.93;90.20;102355.00;5072823;28;21157;-48
2022/03/28 07:15:37;;;;;;;14.27;13.50;;;;;;;7.98;89.61;102355.41;5073342;28;20509;-45
2022/03/28 07:18:07;;;;;;;15.27;14.37;;;;;;;8.07;89.67;102351.06;5073460;28;20427;-46
2022/03/28 07:20:36;;;;;;;15.07;14.27;;;;;;;8.13;89.36;102347.84;5072802;28;20980;-49
2022/03/28 07:23:05;;;;;;;14.50;13.80;;;;;;;8.21;89.00;102338.19;5072701;28;20462;-45
2022/03/28 07:25:34;;;;;;;13.43;12.37;;;;;;;8.23;87.97;102335.41;5072973;28;20499;-47
2022/03/28 07:28:08;;;;;;;15.47;14.77;;;;;;;8.24;86.75;102339.75;5073245;28;20437;-45
2022/03/28 07:30:37;;;;;;;15.73;14.83;;;;;;;8.24;86.26;102335.25;5072922;28;20423;-46
2022/03/28 07:33:06;;;;;;;15.87;14.87;;;;;;;8.22;85.90;102328.41;5072341;28;20433;-46
2022/03/28 07:35:35;;;;;;;17.03;16.00;;;;;;;8.22;85.92;102331.91;5072771;28;20427;-47
2022/03/28 07:38:07;;;;;;;14.93;14.23;;;;;;;8.29;86.39;102334.88;5072685;28;20862;-46
2022/03/28 07:40:37;;;;;;;15.10;14.20;;;;;;;8.28;85.77;102322.53;5072664;28;20829;-46
2022/03/28 07:43:05;;;;;;;15.20;14.40;;;;;;;8.38;85.95;102327.84;5072770;28;20815;-47
2022/03/28 07:45:34;;;;;;;15.33;14.53;;;;;;;8.40;85.19;102317.91;5065553;28;20462;-48
2022/03/28 07:48:02;;;;;;;16.53;15.00;;;;;;;8.43;84.87;102314.94;5064216;28;20513;-47
2022/03/28 07:50:30;;;;;;;14.90;14.10;;;;;;;8.48;84.72;102310.06;5072275;28;20436;-47
2022/03/28 07:52:58;;;;;;;16.33;15.20;;;;;;;8.55;84.60;102311.13;5072466;28;20466;-50
2022/03/28 07:55:27;;;;;;;15.33;14.40;;;;;;;8.58;83.75;102308.19;5071765;28;20465;-45
2022/03/28 07:57:59;;;;;;;16.10;14.80;;;;;;;8.57;83.27;102306.53;5072464;28;20521;-47
2022/03/28 08:00:28;;;;;;;15.87;14.97;;;;;;;8.62;83.19;102306.94;5072201;28;20914;-49
2022/03/28 08:02:57;;;;;;;16.57;15.13;;;;;;;8.62;82.76;102297.13;5072241;28;20537;-47
2022/03/28 08:05:25;;;;;;;15.70;14.87;;;;;;;8.60;82.21;102296.41;5071730;28;21045;-46
2022/03/28 08:07:53;;;;;;;16.43;15.23;;;;;;;8.59;82.27;102296.59;5072157;28;20437;-48
2022/03/28 08:10:21;;;;;;;16.60;15.53;;;;;;;8.59;82.27;102289.44;5072113;28;20434;-47
2022/03/28 08:12:50;;;;;;;15.87;14.87;;;;;;;8.56;81.97;102283.56;5072448;28;20438;-46
2022/03/28 08:15:22;;;;;;;15.30;14.50;;;;;;;8.61;82.75;102281.31;5071295;28;20462;-47
2022/03/28 08:17:50;;;;;;;15.97;14.87;;;;;;;8.62;82.79;102283.00;5072273;28;20477;-45
2022/03/28 08:20:17;;;;;;;16.60;15.50;;;;;;;8.65;82.58;102272.06;5071753;28;20474;-47
2022/03/28 08:22:49;;;;;;;16.80;15.40;;;;;;;8.57;82.32;102271.97;5071923;28;20469;-46
2022/03/28 08:25:18;;;;;;;16.20;15.30;;;;;;;8.58;82.78;102271.81;5071529;28;20512;-45
2022/03/28 08:27:46;;;;;;;18.27;16.60;;;;;;;8.64;83.23;102270.38;5071604;28;20446;-45
2022/03/28 08:30:14;;;;;;;17.97;16.63;;;;;;;8.60;83.30;102263.69;5071600;28;20436;-47
2022/03/28 08:32:45;;;;;;;17.77;16.57;;;;;;;8.62;83.42;102273.19;5072087;28;20426;-45
2022/03/28 08:35:14;;;;;;;17.37;16.00;;;;;;;8.64;83.83;102273.03;5071538;28;20484;-50
2022/03/28 08:37:41;;;;;;;16.77;15.80;;;;;;;8.58;83.53;102276.28;5071900;28;20462;-51
2022/03/28 08:40:13;;;;;;;18.73;17.63;;;;;;;8.37;84.26;102271.19;5071595;28;20470;-46
2022/03/28 08:42:40;;;;;;;17.77;16.63;;;;;;;8.37;84.88;102265.88;5071406;28;20893;-47
2022/03/28 08:45:11;;;;;;;18.63;17.43;;;;;;;8.37;85.57;102265.03;5064126;28;20482;-45
2022/03/28 08:47:42;;;;;;;18.33;17.23;;;;;;;8.25;85.18;102267.84;5063368;28;20438;-49
2022/03/28 08:50:31;;;;;;;19.20;17.90;;;;;;;8.25;87.75;102259.88;5071637;28;20438;-47
2022/03/28 08:52:58;;;;;;;20.53;18.83;;;;;;;8.37;87.60;102257.03;5071548;28;20552;-48
2022/03/28 08:55:26;;;;;;;16.90;16.00;;;;;;;8.34;86.83;102260.84;5071051;28;20542;-49
2022/03/28 08:57:54;;;;;;;17.53;16.53;;;;;;;8.15;87.65;102258.22;5071552;28;20458;-47
2022/03/28 09:00:21;;;;;;;18.87;17.53;;;;;;;8.25;88.63;102251.88;5071635;28;20431;-45
2022/03/28 09:02:50;;;;;;;17.30;16.07;;;;;;;8.14;88.08;102256.53;5071674;28;20900;-47
2022/03/28 09:05:28;;;;;;;18.50;16.70;;;;;;;8.20;88.73;102256.81;5070942;28;20466;-48
2022/03/28 09:07:58;;;;;;;18.40;17.17;;;;;;;8.31;88.40;102255.81;5071721;28;20434;-48
2022/03/28 09:10:28;;;;;;;18.47;17.17;;;;;;;8.28;87.18;102254.28;5071545;28;20445;-46
2022/03/28 09:13:01;;;;;;;18.27;16.97;;;;;;;8.22;88.30;102254.84;5071446;28;20976;-46
2022/03/28 09:15:43;;;;;;;18.73;17.50;;;;;;;8.17;88.72;102249.13;5071161;28;20854;-45
2022/03/28 09:18:20;;;;;;;18.17;16.97;;;;;;;8.09;87.93;102240.19;5071602;28;20525;-51
2022/03/28 09:20:49;;;;;;;20.13;18.63;;;;;;;8.18;88.46;102239.34;5071289;28;20788;-45
2022/03/28 09:23:33;;;;;;;19.30;18.00;;;;;;;8.07;88.83;102228.84;5070871;28;20980;-46
2022/03/28 09:26:07;;;;;;;17.93;16.63;;;;;;;8.01;89.80;102232.09;5072781;28;20541;-46
2022/03/28 09:28:47;;;;;;;20.60;18.87;;;;;;;7.99;91.12;102226.94;5075288;28;20924;-47
2022/03/28 09:31:21;;;;;;;20.10;18.60;;;;;;;7.82;90.81;102227.69;5075018;28;20422;-45
2022/03/28 09:34:04;;;;;;;19.27;17.73;;;;;;;7.90;91.50;102225.13;5074758;28;20497;-47
2022/03/28 09:36:43;;;;;;;18.73;17.50;;;;;;;8.08;91.19;102226.06;5074944;28;20452;-48
2022/03/28 09:39:16;;;;;;;20.40;19.00;;;;;;;8.00;90.24;102225.97;5075298;28;20466;-46
2022/03/28 09:41:45;;;;;;;20.30;18.73;;;;;;;8.08;90.59;102215.44;5074750;28;20502;-45
2022/03/28 09:44:14;;;;;;;18.83;17.43;;;;;;;8.10;91.10;102213.47;5074777;28;20486;-46
2022/03/28 09:46:41;;;;;;;21.07;19.40;;;;;;;8.25;91.93;102217.34;5074942;28;20904;-52
2022/03/28 09:49:09;;;;;;;20.40;18.80;;;;;;;8.13;90.50;102210.53;5074817;28;20529;-49
2022/03/28 09:51:37;;;;;;;20.37;18.73;;;;;;;8.25;89.93;102201.41;5075049;28;21006;-46
2022/03/28 09:54:25;;;;;;;19.03;17.73;;;;;;;8.18;90.25;102210.91;5074617;28;20541;-51
2022/03/28 09:57:11;;;;;;;21.20;19.30;;;;;;;8.19;89.63;102207.28;5074769;28;20494;-50
2022/03/28 09:59:40;;;;;;;19.60;18.07;;;;;;;7.99;90.86;102211.00;5074585;28;20442;-49
2022/03/28 10:02:18;;;;;;;20.57;18.60;;;;;;;7.93;92.78;102211.56;5074474;28;20984;-47
2022/03/28 10:04:51;;;;;;;20.07;18.03;;;;;;;7.92;92.74;102214.34;5074164;28;20564;-47
2022/03/28 10:07:20;;;;;;;21.20;19.70;;;;;;;7.97;91.73;102206.81;5074502;28;20446;-50
2022/03/28 10:09:51;;;;;;;20.30;18.80;;;;;;;7.90;92.07;102209.19;5074488;28;20434;-48
2022/03/28 10:12:20;;;;;;;22.93;20.83;;;;;;;8.15;92.32;102203.22;5074245;28;20553;-48
2022/03/28 10:14:50;;;;;;;21.43;19.80;;;;;;;8.24;91.50;102194.38;5074151;28;20462;-45
2022/03/28 10:17:19;;;;;;;22.90;21.00;;;;;;;8.29;91.25;102201.97;5074406;28;20994;-46
2022/03/28 10:19:47;;;;;;;22.20;20.37;;;;;;;8.05;91.35;102198.94;5074482;28;20525;-48
2022/03/28 10:22:27;;;;;;;24.30;22.00;;;;;;;8.03;92.75;102201.78;5074113;28;20470;-46
2022/03/28 10:24:59;;;;;;;23.40;21.23;;;;;;;7.99;92.99;102197.72;5073964;28;20458;-48
2022/03/28 10:27:27;;;;;;;23.37;21.40;;;;;;;7.94;92.26;102201.78;5074332;28;20449;-48
2022/03/28 10:30:09;;;;;;;23.27;21.50;;;;;;;7.87;93.07;102193.56;5074186;28;20472;-45
2022/03/28 10:32:38;;;;;;;22.33;20.17;;;;;;;7.78;92.96;102191.75;5074159;28;20521;-46
2022/03/28 10:35:07;;;;;;;22.30;20.30;;;;;;;7.88;93.55;102205.03;5073626;28;20462;-48
2022/03/28 10:37:36;;;;;;;21.03;19.33;;;;;;;7.74;92.47;102193.84;5072658;28;20452;-47
2022/03/28 10:40:21;;;;;;;24.03;21.47;;;;;;;7.72;92.54;102201.13;5074038;28;20438;-50
2022/03/28 10:42:52;;;;;;;25.13;22.20;;;;;;;7.93;93.65;102198.28;5073866;28;20556;-49
2022/03/28 10:45:21;;;;;;;24.73;22.50;;;;;;;8.04;92.04;102197.25;5065851;28;20465;-46
2022/03/28 10:47:54;;;;;;;23.40;21.30;;;;;;;8.01;90.81;102190.44;5065663;28;20450;-49
2022/03/28 10:50:26;;;;;;;21.50;19.80;;;;;;;7.91;91.50;102197.59;5073751;28;20513;-45
2022/03/28 10:53:08;;;;;;;23.07;20.87;;;;;;;7.82;92.63;102196.63;5073846;28;20407;-48
2022/03/28 10:55:43;;;;;;;25.40;22.80;;;;;;;7.97;93.31;102191.72;5073406;28;21232;-48
2022/03/28 10:58:19;;;;;;;21.80;19.90;;;;;;;8.07;91.75;102181.03;5073880;28;20433;-48
2022/03/28 11:01:19;;;;;;;23.63;21.43;;;;;;;8.30;90.59;102177.09;5073483;28;20509;-47
2022/03/28 11:03:49;;;;;;;18.53;17.03;;;;;;;8.39;88.46;102164.72;5073050;28;20837;-50
2022/03/28 11:06:18;;;;;;;18.10;16.90;;;;;;;8.32;88.18;102165.31;5073497;28;20538;-51
2022/03/28 11:08:58;;;;;;;19.63;17.90;;;;;;;8.52;88.09;102158.06;5073579;28;20854;-47
2022/03/28 11:11:31;;;;;;;18.87;17.47;;;;;;;8.48;88.00;102153.22;5073244;28;20433;-50
2022/03/28 11:14:02;;;;;;;18.60;17.37;;;;;;;8.74;87.94;102147.00;5072918;28;20549;-47
2022/03/28 11:16:41;;;;;;;18.93;17.47;;;;;;;8.64;85.15;102140.06;5073450;28;20540;-49
2022/03/28 11:19:24;;;;;;;18.73;17.33;;;;;;;8.69;85.90;102149.28;5073440;28;20445;-45
2022/03/28 11:22:08;;;;;;;18.83;17.63;;;;;;;8.70;86.70;102144.78;5072914;28;20953;-49
2022/03/28 11:24:52;;;;;;;18.57;17.43;;;;;;;8.59;86.71;102143.19;5072733;28;20889;-48
2022/03/28 11:27:23;;;;;;;18.10;17.00;;;;;;;8.70;86.93;102139.47;5072782;28;20550;-47
2022/03/28 11:30:00;;;;;;;18.87;17.60;;;;;;;8.68;86.64;102136.97;5073103;28;20529;-48